Ob ' Jacevo, Russia
Current Conditions -  °F | °C
As of 6:30 PM on Thursday 30 Oct 2014 (Local Time) from UUYY Reporting Station
Clear Clear  
Wind Chill: 29°   Ceiling: Unl
Heat Index: 36°   Visibility: 6mi
Dew Point: 30°   Wind: 9mph
Humidity: 81%   Direction: 210°SSW
Pressure: 29.85"   Gusts: NA
Location:  60.37°N, 49.65°E
Report Text: UUYY 301530Z 21004MPS CAVOK 02/M01 Q1011 NOSIG 1929//51 RMKQFE750/1000
Loading
Personal Weather Stations






























Interactive Weather Map
Tropical Storm Tracking
New forecast layout! Learn more

10-Day Weather Forecast

Advertisements
Track Severe Weather on mobile